Time;durP1;ratioP1;P1;durP2;ratioP2;P2;SDS_P1;SDS_P2;PMS_P1;PMS_P2;Temp;Humidity;BMP_temperature;BMP_pressure;BME280_temperature;BME280_humidity;BME280_pressure;Samples;Min_cycle;Max_cycle;Signal;HPM_P1;HPM_P2
2023/07/11 03:01:19;;;;;;;15.93;14.93;;;17.70;99.90;;;;;;5481097;23;20274;-69
2023/07/11 03:03:45;;;;;;;22.33;21.00;;;17.70;99.90;;;;;;4911460;29;20183;-71
2023/07/11 03:06:11;;;;;;;19.98;18.63;;;17.70;99.90;;;;;;4914967;29;20274;-69
2023/07/11 03:08:37;;;;;;;17.20;16.00;;;17.70;99.90;;;;;;4909186;29;20212;-69
2023/07/11 03:11:03;;;;;;;16.58;15.45;;;17.60;99.90;;;;;;4910428;29;20254;-69
2023/07/11 03:13:29;;;;;;;19.38;18.08;;;17.70;99.90;;;;;;4913130;29;20278;-70
2023/07/11 03:15:55;;;;;;;21.90;20.67;;;17.70;99.90;;;;;;4914896;29;20190;-73
2023/07/11 03:18:21;;;;;;;25.13;23.58;;;17.70;99.90;;;;;;4913575;29;20202;-73
2023/07/11 03:20:47;;;;;;;25.45;23.95;;;17.70;99.90;;;;;;4914219;29;20703;-72
2023/07/11 03:23:14;;;;;;;35.03;33.00;;;17.60;99.90;;;;;;4914451;29;20322;-73
2023/07/11 03:25:40;;;;;;;43.58;41.13;;;17.60;99.90;;;;;;4913942;29;20187;-73
2023/07/11 03:28:06;;;;;;;34.93;32.93;;;17.70;99.90;;;;;;4914292;29;20223;-72
2023/07/11 03:30:34;;;;;;;25.42;23.95;;;17.80;99.90;;;;;;4913714;29;20250;-72
2023/07/11 03:33:00;;;;;;;24.13;22.52;;;17.70;99.90;;;;;;4914176;29;20226;-69
2023/07/11 03:35:26;;;;;;;20.52;19.13;;;17.80;99.90;;;;;;4914274;29;20190;-69
2023/07/11 03:37:52;;;;;;;18.93;17.33;;;17.70;99.90;;;;;;4913082;29;20190;-69
2023/07/11 03:40:18;;;;;;;22.45;20.77;;;17.70;99.90;;;;;;4914029;29;20198;-69
2023/07/11 03:42:43;;;;;;;18.13;16.85;;;17.60;99.90;;;;;;4914105;29;20206;-69
2023/07/11 03:45:09;;;;;;;16.95;15.90;;;17.60;99.90;;;;;;4914212;29;20183;-69
2023/07/11 03:47:36;;;;;;;17.33;16.02;;;17.60;99.90;;;;;;4896748;29;20247;-69
2023/07/11 03:50:02;;;;;;;35.00;32.95;;;17.60;99.90;;;;;;4908369;29;20957;-69
2023/07/11 03:52:28;;;;;;;17.25;16.02;;;17.70;99.90;;;;;;4900202;29;20203;-69
2023/07/11 03:54:53;;;;;;;18.08;16.38;;;17.70;99.90;;;;;;4914017;29;20209;-69
2023/07/11 03:57:19;;;;;;;15.73;14.63;;;17.60;99.90;;;;;;4913710;29;20226;-69
2023/07/11 03:59:46;;;;;;;17.58;16.38;;;17.70;99.90;;;;;;4914277;29;20199;-69
2023/07/11 04:02:12;;;;;;;15.80;14.73;;;17.80;99.90;;;;;;4914167;29;20253;-69
2023/07/11 04:04:37;;;;;;;12.05;11.10;;;17.90;99.90;;;;;;4914121;29;20672;-69
2023/07/11 04:07:04;;;;;;;16.05;14.85;;;18.00;99.90;;;;;;4897235;29;20631;-69
2023/07/11 04:09:30;;;;;;;25.27;23.75;;;18.00;99.90;;;;;;4897333;29;20226;-69
2023/07/11 04:11:56;;;;;;;33.95;31.95;;;18.00;99.90;;;;;;4897480;29;20728;-70
2023/07/11 04:14:22;;;;;;;62.20;58.75;;;18.00;99.90;;;;;;4914257;29;20195;-71
2023/07/11 04:16:48;;;;;;;79.18;74.72;;;18.00;99.90;;;;;;4914093;29;20199;-69
2023/07/11 04:19:14;;;;;;;98.72;93.40;;;18.00;99.90;;;;;;4914016;29;20784;-69
2023/07/11 04:21:39;;;;;;;98.47;93.38;;;17.90;99.90;;;;;;4913925;29;20258;-69
2023/07/11 04:24:05;;;;;;;127.45;120.88;;;18.00;99.90;;;;;;4897455;29;20195;-68
2023/07/11 04:26:31;;;;;;;168.60;159.60;;;18.00;99.90;;;;;;4913766;29;20209;-69
2023/07/11 04:28:57;;;;;;;162.52;153.95;;;18.10;99.90;;;;;;4913768;29;20269;-68
2023/07/11 04:31:23;;;;;;;98.90;93.63;;;18.20;99.90;;;;;;4913720;29;20278;-69
2023/07/11 04:33:48;;;;;;;95.82;90.60;;;18.30;99.90;;;;;;4913828;29;20183;-68
2023/07/11 04:36:16;;;;;;;50.53;47.73;;;18.40;99.90;;;;;;4896981;29;20270;-69
2023/07/11 04:38:43;;;;;;;52.35;49.55;;;18.50;99.90;;;;;;4896867;29;20195;-68
2023/07/11 04:41:09;;;;;;;64.72;61.05;;;18.50;99.90;;;;;;4913844;29;20876;-70
2023/07/11 04:43:36;;;;;;;63.30;58.60;;;18.60;99.90;;;;;;4917470;29;20191;-69
2023/07/11 04:46:04;;;;;;;79.25;74.68;;;18.80;99.90;;;;;;4917381;29;20195;-69
2023/07/11 04:48:31;;;;;;;105.80;99.75;;;18.90;99.90;;;;;;4917184;29;20659;-69
2023/07/11 04:51:02;;;;;;;77.50;71.70;;;19.00;99.90;;;;;;4917082;29;20226;-70
2023/07/11 04:53:29;;;;;;;62.35;58.28;;;19.10;99.90;;;;;;4917392;29;20787;-70
2023/07/11 04:55:56;;;;;;;78.13;73.30;;;19.20;99.90;;;;;;4917094;29;20549;-70
2023/07/11 04:58:23;;;;;;;262.55;249.05;;;19.40;99.90;;;;;;4898762;29;20199;-74
2023/07/11 05:00:50;;;;;;;332.02;314.58;;;19.50;99.90;;;;;;4899406;29;20686;-71
2023/07/11 05:03:16;;;;;;;254.25;241.40;;;19.60;99.90;;;;;;4905621;29;20191;-85
2023/07/11 05:05:41;;;;;;;200.68;190.65;;;19.70;99.90;;;;;;4913348;29;20198;-85
2023/07/11 05:08:07;;;;;;;146.55;139.02;;;19.90;99.90;;;;;;4904436;29;20199;-85
2023/07/11 05:10:33;;;;;;;62.05;58.65;;;20.10;99.90;;;;;;4904333;29;20234;-85
2023/07/11 05:12:59;;;;;;;22.10;20.38;;;20.50;99.90;;;;;;4939562;29;20227;-82
2023/07/11 05:15:25;;;;;;;19.13;17.35;;;20.90;99.90;;;;;;4932485;29;20175;-82
2023/07/11 05:17:51;;;;;;;16.40;15.40;;;21.30;99.90;;;;;;4918064;29;20194;-83
2023/07/11 05:20:16;;;;;;;21.02;19.70;;;21.70;99.90;;;;;;4907979;29;20682;-83
2023/07/11 05:22:42;;;;;;;18.77;17.48;;;22.00;99.90;;;;;;4907444;29;20216;-84
2023/07/11 05:25:08;;;;;;;120.85;113.82;;;22.30;99.90;;;;;;4925124;29;20555;-83
2023/07/11 05:27:34;;;;;;;114.78;108.80;;;22.50;99.90;;;;;;4923624;29;20195;-84
2023/07/11 05:29:59;;;;;;;99.15;94.03;;;22.70;99.90;;;;;;4923910;29;20211;-84
2023/07/11 05:32:25;;;;;;;110.53;104.65;;;23.00;99.90;;;;;;4908000;29;20710;-83
2023/07/11 05:34:51;;;;;;;77.35;73.18;;;23.40;99.90;;;;;;4923407;29;20560;-84
2023/07/11 05:37:17;;;;;;;36.95;34.75;;;23.70;99.90;;;;;;4916944;29;20210;-85
2023/07/11 05:39:42;;;;;;;27.05;25.40;;;23.90;99.90;;;;;;4927679;29;20189;-85
2023/07/11 05:42:09;;;;;;;20.58;19.02;;;24.10;99.90;;;;;;4911773;29;20218;-83
2023/07/11 05:44:35;;;;;;;15.18;14.07;;;24.30;99.90;;;;;;4931456;29;20210;-85
2023/07/11 05:47:00;;;;;;;11.57;10.63;;;24.50;99.90;;;;;;4926045;29;20199;-84
2023/07/11 05:49:26;;;;;;;10.35;9.40;;;24.80;99.90;;;;;;4924453;29;20305;-84
2023/07/11 05:51:52;;;;;;;9.45;8.63;;;25.10;99.90;;;;;;4909849;29;20215;-84
2023/07/11 05:54:18;;;;;;;10.40;9.40;;;25.40;99.90;;;;;;4907713;29;20187;-84
2023/07/11 05:56:44;;;;;;;14.93;13.73;;;25.60;99.90;;;;;;4907803;29;20587;-84
2023/07/11 05:59:10;;;;;;;28.77;26.90;;;25.90;99.90;;;;;;4924300;29;20229;-84
2023/07/11 06:01:36;;;;;;;29.33;27.25;;;26.30;99.90;;;;;;4922543;29;20231;-84
2023/07/11 06:04:06;;;;;;;18.10;16.92;;;26.50;99.90;;;;;;4920527;29;20186;-85
2023/07/11 06:06:35;;;;;;;12.95;11.98;;;26.30;99.90;;;;;;4921118;29;20186;-83
2023/07/11 06:09:01;;;;;;;12.00;11.05;;;25.90;99.90;;;;;;4921852;29;20230;-85
2023/07/11 06:11:27;;;;;;;11.43;10.27;;;25.90;99.90;;;;;;4919612;29;20231;-84
2023/07/11 06:13:52;;;;;;;10.73;8.25;;;26.10;99.90;;;;;;4903322;29;20187;-84
2023/07/11 06:16:18;;;;;;;10.43;9.48;;;26.50;99.90;;;;;;4919961;29;20195;-84
2023/07/11 06:18:48;;;;;;;13.75;12.55;;;26.80;99.90;;;;;;4927707;29;20603;-85
2023/07/11 06:21:15;;;;;;;11.10;9.00;;;27.30;99.90;;;;;;4902586;29;20222;-84
2023/07/11 06:23:40;;;;;;;8.48;7.70;;;27.70;99.90;;;;;;4920056;29;20259;-83
2023/07/11 06:26:09;;;;;;;8.63;7.75;;;27.80;99.90;;;;;;4941244;29;20191;-83
2023/07/11 06:28:34;;;;;;;8.18;7.57;;;27.90;99.00;;;;;;4924485;29;20259;-83
2023/07/11 06:31:01;;;;;;;10.93;9.93;;;28.00;98.90;;;;;;4905756;29;20333;-85
2023/07/11 06:33:28;;;;;;;16.35;15.27;;;28.30;97.90;;;;;;4923403;29;20262;-85
2023/07/11 06:35:54;;;;;;;15.43;14.43;;;28.30;96.90;;;;;;4931060;29;20182;-84
2023/07/11 06:38:21;;;;;;;14.48;13.32;;;28.50;96.80;;;;;;4940421;29;20193;-84
2023/07/11 06:40:52;;;;;;;11.20;10.30;;;28.70;95.70;;;;;;4923676;29;20222;-84
2023/07/11 06:43:18;;;;;;;10.93;8.88;;;28.90;95.60;;;;;;4937669;29;20695;-85
2023/07/11 06:45:46;;;;;;;10.38;7.72;;;29.00;94.70;;;;;;4918444;29;20202;-85
2023/07/11 06:48:14;;;;;;;10.57;9.77;;;29.30;94.20;;;;;;4905082;29;20206;-85
2023/07/11 06:50:40;;;;;;;10.68;9.88;;;29.50;93.60;;;;;;4903395;29;20310;-85
2023/07/11 06:53:05;;;;;;;10.25;8.57;;;29.80;92.90;;;;;;4906788;29;20226;-84
2023/07/11 06:55:31;;;;;;;11.90;11.07;;;30.10;91.80;;;;;;4910383;29;20397;-85
2023/07/11 06:57:57;;;;;;;11.30;10.50;;;30.30;91.50;;;;;;4921128;29;20187;-85
2023/07/11 07:00:24;;;;;;;10.93;10.05;;;30.40;90.70;;;;;;4907671;29;20202;-85
2023/07/11 07:02:50;;;;;;;8.07;7.47;;;30.80;90.50;;;;;;4921713;29;20214;-85
2023/07/11 07:05:16;;;;;;;13.20;12.15;;;31.30;89.40;;;;;;4908229;29;20191;-86
2023/07/11 07:07:41;;;;;;;15.25;14.07;;;31.30;86.60;;;;;;4910151;29;20797;-85
2023/07/11 07:10:08;;;;;;;14.07;13.18;;;31.00;86.00;;;;;;4902484;29;20210;-85
2023/07/11 07:12:34;;;;;;;12.70;11.60;;;31.00;86.00;;;;;;4901085;29;20215;-86
2023/07/11 07:14:59;;;;;;;15.25;14.20;;;31.00;85.30;;;;;;4918585;29;20199;-85
2023/07/11 07:17:25;;;;;;;20.00;18.80;;;30.90;84.70;;;;;;4924656;29;20193;-85
2023/07/11 07:19:51;;;;;;;15.48;14.43;;;30.80;84.80;;;;;;4902496;29;20199;-86
2023/07/11 07:22:17;;;;;;;15.02;13.93;;;31.00;85.20;;;;;;4916187;29;20219;-84
2023/07/11 07:24:44;;;;;;;12.40;11.60;;;30.80;84.80;;;;;;4917791;29;20194;-85
2023/07/11 07:27:11;;;;;;;13.95;12.98;;;30.90;83.80;;;;;;4915197;29;20273;-85
2023/07/11 07:29:37;;;;;;;17.35;16.00;;;31.00;83.70;;;;;;4918017;29;20210;-85
2023/07/11 07:32:03;;;;;;;12.85;11.88;;;30.90;82.80;;;;;;4916156;29;20213;-85
2023/07/11 07:34:29;;;;;;;14.55;13.38;;;31.20;81.80;;;;;;4901195;29;20183;-85
2023/07/11 07:36:55;;;;;;;14.55;13.75;;;31.70;81.50;;;;;;4917193;29;20214;-85
2023/07/11 07:39:21;;;;;;;25.83;24.35;;;32.30;80.20;;;;;;4900845;29;20222;-85
2023/07/11 07:41:46;;;;;;;40.72;38.47;;;32.80;75.20;;;;;;4921158;29;20242;-85
2023/07/11 07:44:13;;;;;;;42.60;40.30;;;33.00;73.90;;;;;;4917983;29;20241;-85
2023/07/11 07:46:39;;;;;;;34.03;31.92;;;33.20;73.50;;;;;;4901203;29;20187;-85
2023/07/11 07:49:05;;;;;;;23.80;22.48;;;33.40;72.30;;;;;;4915838;29;20639;-85
2023/07/11 07:51:30;;;;;;;11.85;11.15;;;33.50;71.50;;;;;;4917042;29;20219;-85
2023/07/11 07:53:56;;;;;;;13.63;12.75;;;33.20;69.30;;;;;;4916124;29;20663;-85
2023/07/11 07:56:23;;;;;;;9.93;9.20;;;33.40;69.20;;;;;;4917744;29;20199;-85
2023/07/11 07:58:50;;;;;;;12.95;11.95;;;33.70;67.30;;;;;;4901204;29;20188;-85
2023/07/11 08:01:18;;;;;;;12.55;11.55;;;34.00;67.20;;;;;;4906509;29;20236;-84
2023/07/11 08:03:44;;;;;;;15.85;14.85;;;33.90;67.40;;;;;;4901998;29;20198;-85
2023/07/11 08:06:12;;;;;;;23.25;21.85;;;34.20;66.80;;;;;;4920421;29;20201;-85
2023/07/11 08:08:39;;;;;;;28.25;26.65;;;34.40;65.30;;;;;;4917003;29;20191;-85
2023/07/11 08:11:06;;;;;;;44.40;42.03;;;34.90;65.20;;;;;;4931744;29;20250;-85
2023/07/11 08:13:34;;;;;;;75.90;71.95;;;35.10;64.30;;;;;;4907198;29;20205;-83
2023/07/11 08:16:01;;;;;;;95.07;90.50;;;34.80;63.40;;;;;;4903097;29;20287;-83
2023/07/11 08:18:28;;;;;;;95.53;90.70;;;34.70;63.40;;;;;;4904190;29;20563;-84
2023/07/11 08:20:53;;;;;;;64.78;61.22;;;34.40;62.90;;;;;;4904322;29;20280;-84
2023/07/11 08:23:19;;;;;;;65.22;61.35;;;34.00;63.90;;;;;;4921315;29;20217;-85
2023/07/11 08:25:53;;;;;;;73.45;69.72;;;34.20;64.50;;;;;;4911630;29;20195;-86
2023/07/11 08:28:19;;;;;;;92.70;88.07;;;34.70;63.80;;;;;;4903952;29;20213;-86
2023/07/11 08:30:45;;;;;;;97.82;92.93;;;34.80;62.10;;;;;;4921515;29;20703;-86
2023/07/11 08:33:11;;;;;;;62.55;59.03;;;34.50;62.10;;;;;;4919774;29;20222;-85
2023/07/11 08:35:37;;;;;;;64.22;60.83;;;34.40;63.10;;;;;;4937507;29;20190;-83
2023/07/11 08:38:03;;;;;;;69.93;66.28;;;34.30;63.20;;;;;;4926376;29;20175;-82
2023/07/11 08:40:38;;;;;;;60.90;57.65;;;34.40;62.60;;;;;;4941902;29;20223;-88
2023/07/11 08:43:05;;;;;;;76.10;72.30;;;34.90;63.40;;;;;;4923224;29;20194;-87
2023/07/11 08:45:50;;;;;;;128.38;121.93;;;35.50;61.30;;;;;;4918422;29;20187;-88
2023/07/11 08:48:25;;;;;;;187.85;178.50;;;35.80;59.90;;;;;;4907796;29;20215;-86
2023/07/11 08:51:12;;;;;;;225.13;213.75;;;36.00;59.90;;;;;;4921466;29;20230;-84
2023/07/11 08:53:44;;;;;;;224.57;213.07;;;36.10;59.80;;;;;;4905190;29;20195;-84
2023/07/11 08:56:19;;;;;;;240.13;227.75;;;36.00;59.50;;;;;;4905623;29;20693;-85
2023/07/11 08:58:48;;;;;;;214.05;203.48;;;36.40;59.60;;;;;;4905384;29;20556;-84
2023/07/11 09:01:33;;;;;;;214.25;203.68;;;36.70;57.90;;;;;;4905655;29;20251;-83
2023/07/11 09:04:00;;;;;;;189.45;180.00;;;36.90;58.20;;;;;;4914723;29;20221;-85
2023/07/11 09:06:37;;;;;;;129.77;123.35;;;37.30;57.70;;;;;;4902434;29;20191;-85
2023/07/11 09:09:04;;;;;;;118.40;112.35;;;37.40;57.50;;;;;;4901470;29;20741;-84
2023/07/11 09:11:41;;;;;;;88.68;83.93;;;37.50;57.50;;;;;;4904464;29;20249;-86
2023/07/11 09:14:10;;;;;;;78.88;74.45;;;37.40;57.50;;;;;;4905926;29;20278;-83
2023/07/11 09:17:06;;;;;;;106.30;100.90;;;37.20;58.50;;;;;;4925478;23;20233;-79
2023/07/11 09:19:58;;;;;;;124.32;118.15;;;37.20;59.00;;;;;;4887954;29;20469;-78
2023/07/11 09:22:41;;;;;;;96.78;91.88;;;37.80;59.80;;;;;;4917392;29;20203;-80
2023/07/11 09:25:21;;;;;;;84.13;79.63;;;37.90;59.00;;;;;;4924433;29;20199;-78
2023/07/11 09:27:54;;;;;;;84.25;79.70;;;37.70;58.50;;;;;;4906983;29;20540;-81
2023/07/11 09:30:35;;;;;;;44.40;41.72;;;37.80;59.10;;;;;;4907899;29;20196;-79
2023/07/11 09:33:30;;;;;;;28.73;26.77;;;38.10;57.70;;;;;;4919692;29;20203;-79
2023/07/11 09:35:57;;;;;;;20.75;19.30;;;37.80;58.00;;;;;;4885267;29;20235;-78
2023/07/11 09:38:27;;;;;;;17.08;15.75;;;38.00;57.60;;;;;;4891570;29;20629;-80
2023/07/11 09:40:57;;;;;;;14.38;13.30;;;38.00;57.30;;;;;;4902477;29;20726;-79
2023/07/11 09:43:22;;;;;;;13.05;11.90;;;38.30;57.50;;;;;;4897009;29;20191;-81
2023/07/11 09:45:48;;;;;;;11.57;10.85;;;38.40;56.80;;;;;;4886991;29;20211;-79
2023/07/11 09:48:30;;;;;;;11.82;10.73;;;38.00;57.80;;;;;;4901629;29;20194;-78
2023/07/11 09:51:30;;;;;;;11.68;10.73;;;37.90;58.30;;;;;;4885074;29;20254;-80
2023/07/11 09:53:56;;;;;;;10.10;9.13;;;38.40;58.30;;;;;;4901684;29;20195;-80
2023/07/11 09:56:25;;;;;;;10.05;8.07;;;38.80;57.70;;;;;;4902528;29;20215;-80
2023/07/11 09:58:59;;;;;;;13.27;12.15;;;38.60;57.30;;;;;;4901611;29;20611;-80
2023/07/11 10:01:32;;;;;;;12.63;11.63;;;39.30;57.00;;;;;;4908057;29;20241;-79
2023/07/11 10:03:59;;;;;;;11.32;10.52;;;39.40;57.10;;;;;;4883478;29;20191;-80
2023/07/11 10:06:55;;;;;;;9.93;9.18;;;39.70;55.90;;;;;;4903851;29;20437;-81
2023/07/11 10:09:27;;;;;;;9.48;8.68;;;39.70;55.00;;;;;;4889196;29;20200;-78
2023/07/11 10:11:56;;;;;;;9.35;8.55;;;39.40;55.20;;;;;;4891041;29;20192;-79
2023/07/11 10:14:28;;;;;;;9.80;9.00;;;39.20;55.40;;;;;;4895078;29;20195;-79
2023/07/11 10:16:56;;;;;;;12.13;9.63;;;38.80;55.50;;;;;;4888132;29;20266;-77
2023/07/11 10:19:22;;;;;;;12.95;11.77;;;38.60;54.10;;;;;;4912629;29;20631;-80
2023/07/11 10:21:50;;;;;;;10.00;9.18;;;38.80;52.70;;;;;;4913700;29;20195;-78
2023/07/11 10:24:22;;;;;;;37.60;35.45;;;39.50;52.80;;;;;;4890269;29;20192;-79
2023/07/11 10:27:00;;;;;;;38.03;35.67;;;40.20;51.40;;;;;;4913083;29;20226;-80
2023/07/11 10:29:29;;;;;;;32.35;30.67;;;40.40;50.70;;;;;;4908496;29;20208;-80
2023/07/11 10:31:58;;;;;;;40.45;38.20;;;40.10;50.30;;;;;;4891711;29;20637;-79
2023/07/11 10:34:34;;;;;;;42.53;40.28;;;39.80;50.00;;;;;;4909440;29;20199;-79
2023/07/11 10:37:33;;;;;;;44.80;41.95;;;39.70;50.50;;;;;;4908591;29;20242;-79
2023/07/11 10:40:14;;;;;;;52.10;49.13;;;39.90;50.30;;;;;;4896184;29;20224;-80
2023/07/11 10:42:47;;;;;;;38.08;35.75;;;40.50;49.80;;;;;;4905487;29;20227;-79
2023/07/11 10:45:15;;;;;;;42.65;40.40;;;41.10;48.90;;;;;;4910728;29;20200;-81
2023/07/11 10:48:17;;;;;;;28.90;27.08;;;41.70;47.40;;;;;;4907426;29;20188;-80
2023/07/11 10:50:51;;;;;;;31.20;28.98;;;42.00;47.20;;;;;;4872732;29;20234;-79
2023/07/11 10:53:29;;;;;;;24.92;23.27;;;42.10;47.30;;;;;;4910869;29;20191;-77
2023/07/11 10:56:06;;;;;;;25.92;24.45;;;42.00;46.60;;;;;;4906692;29;20216;-82
2023/07/11 10:58:32;;;;;;;28.02;26.17;;;42.00;47.20;;;;;;4905843;29;20195;-82
2023/07/11 11:01:27;;;;;;;26.70;25.30;;;42.20;47.90;;;;;;4907204;29;20211;-80
2023/07/11 11:04:05;;;;;;;17.95;16.30;;;42.60;47.00;;;;;;4886328;29;20710;-81
2023/07/11 11:06:55;;;;;;;18.58;17.45;;;43.00;47.40;;;;;;4917775;29;20239;-81
2023/07/11 11:09:58;;;;;;;18.55;17.30;;;42.90;46.40;;;;;;4881547;29;20282;-78
2023/07/11 11:12:51;;;;;;;23.05;21.40;;;42.40;46.30;;;;;;4900240;29;20218;-77
2023/07/11 11:15:37;;;;;;;28.10;26.55;;;42.30;46.70;;;;;;4881738;29;20231;-80
2023/07/11 11:18:21;;;;;;;40.17;37.47;;;41.80;47.00;;;;;;4884488;29;20298;-77
2023/07/11 11:21:12;;;;;;;48.90;46.25;;;41.50;47.30;;;;;;4901443;29;20346;-79
2023/07/11 11:24:01;;;;;;;30.83;29.00;;;41.90;48.40;;;;;;4878239;29;20210;-80
2023/07/11 11:26:49;;;;;;;23.38;21.70;;;42.70;46.90;;;;;;4900562;29;20220;-78
2023/07/11 11:29:18;;;;;;;21.20;19.80;;;42.40;46.80;;;;;;4899903;29;20621;-78
2023/07/11 11:32:14;;;;;;;27.70;25.98;;;42.50;46.40;;;;;;4899413;29;20281;-80
2023/07/11 11:35:08;;;;;;;78.75;74.35;;;42.00;47.10;;;;;;4908516;29;20203;-80
2023/07/11 11:37:52;;;;;;;75.18;71.03;;;39.60;49.50;;;;;;4900710;29;20212;-80
2023/07/11 11:40:24;;;;;;;44.33;41.85;;;37.90;52.20;;;;;;4892689;29;20303;-81
2023/07/11 11:42:56;;;;;;;19.20;17.67;;;37.60;53.70;;;;;;4892975;29;20191;-80
2023/07/11 11:45:22;;;;;;;41.00;38.58;;;38.20;53.20;;;;;;4906125;29;20251;-81
2023/07/11 11:47:50;;;;;;;76.53;72.47;;;39.90;51.90;;;;;;4887865;29;20188;-78
2023/07/11 11:50:20;;;;;;;76.68;72.70;;;41.10;48.80;;;;;;4907190;29;20199;-77
2023/07/11 11:52:45;;;;;;;59.45;56.38;;;41.20;48.80;;;;;;4910663;29;20225;-81
2023/07/11 11:55:36;;;;;;;39.47;37.30;;;42.00;47.80;;;;;;4912183;29;20263;-80
2023/07/11 11:58:03;;;;;;;38.53;36.28;;;42.90;46.80;;;;;;4877471;29;20313;-78
2023/07/11 12:00:39;;;;;;;23.17;21.88;;;43.00;47.20;;;;;;4894172;29;20224;-80
2023/07/11 12:03:32;;;;;;;18.10;16.90;;;43.50;45.40;;;;;;4894437;29;20266;-78
2023/07/11 12:06:01;;;;;;;19.08;17.63;;;43.50;45.50;;;;;;4908292;29;20215;-80
2023/07/11 12:08:33;;;;;;;21.73;20.42;;;43.10;45.50;;;;;;4909176;29;20279;-79
2023/07/11 12:11:08;;;;;;;19.15;18.05;;;42.60;46.20;;;;;;4890269;29;20584;-76
2023/07/11 12:13:43;;;;;;;24.52;23.10;;;42.10;46.40;;;;;;4882850;29;20303;-76
2023/07/11 12:16:21;;;;;;;59.97;56.28;;;41.70;46.70;;;;;;4891446;29;20233;-77
2023/07/11 12:18:55;;;;;;;49.10;46.38;;;41.10;47.60;;;;;;4889598;29;20224;-77
2023/07/11 12:21:31;;;;;;;58.00;54.83;;;41.30;47.60;;;;;;4909081;29;20219;-79
2023/07/11 12:24:25;;;;;;;66.70;63.22;;;41.30;47.70;;;;;;4892117;29;20203;-79
2023/07/11 12:26:52;;;;;;;60.47;57.17;;;40.60;48.70;;;;;;4903309;29;20700;-79
2023/07/11 12:29:40;;;;;;;63.55;60.25;;;40.60;49.20;;;;;;4912624;29;20656;-78
2023/07/11 12:32:31;;;;;;;46.65;43.67;;;41.20;47.80;;;;;;4915883;29;20192;-80
2023/07/11 12:35:21;;;;;;;35.38;32.80;;;42.50;46.40;;;;;;4911369;29;20251;-80
2023/07/11 12:37:59;;;;;;;43.55;40.90;;;42.60;46.10;;;;;;4890128;29;20176;-81
2023/07/11 12:40:53;;;;;;;74.80;70.15;;;41.70;46.90;;;;;;4925853;29;20230;-78
2023/07/11 12:43:22;;;;;;;63.70;59.83;;;41.00;47.90;;;;;;4885762;29;20196;-78
2023/07/11 12:45:53;;;;;;;52.63;49.50;;;41.60;47.40;;;;;;4882569;29;20593;-78
2023/07/11 12:48:29;;;;;;;21.30;19.88;;;42.30;46.20;;;;;;4901698;29;20195;-78
2023/07/11 12:50:58;;;;;;;18.45;17.17;;;43.70;45.40;;;;;;4884792;29;20287;-78
2023/07/11 12:53:24;;;;;;;18.10;16.95;;;44.00;44.30;;;;;;4889882;29;20546;-78
2023/07/11 12:55:53;;;;;;;19.05;17.65;;;43.80;44.40;;;;;;4892810;29;20214;-77
2023/07/11 12:58:24;;;;;;;24.77;23.05;;;43.40;44.50;;;;;;4906425;29;20183;-79
2023/07/11 13:00:53;;;;;;;34.17;32.03;;;41.70;45.40;;;;;;4909179;29;20302;-78
2023/07/11 13:03:32;;;;;;;50.55;47.45;;;41.30;46.60;;;;;;4904275;29;20263;-79
2023/07/11 13:06:04;;;;;;;86.35;81.88;;;41.00;46.70;;;;;;4885297;29;20215;-79
2023/07/11 13:08:33;;;;;;;60.75;57.58;;;40.20;48.20;;;;;;4907337;29;20191;-76
2023/07/11 13:11:01;;;;;;;61.70;58.40;;;40.70;48.10;;;;;;4898924;29;20191;-78
2023/07/11 13:13:29;;;;;;;51.22;48.45;;;41.70;47.20;;;;;;4898465;29;20323;-77
2023/07/11 13:16:01;;;;;;;85.32;80.88;;;41.90;45.30;;;;;;4911844;29;20227;-81
2023/07/11 13:18:32;;;;;;;85.00;80.55;;;40.90;46.30;;;;;;4891322;29;20238;-77
2023/07/11 13:21:00;;;;;;;65.07;61.47;;;40.80;47.10;;;;;;4898909;29;20248;-77
2023/07/11 13:23:31;;;;;;;29.13;27.35;;;41.80;45.60;;;;;;4892636;29;20203;-79
2023/07/11 13:25:57;;;;;;;26.08;24.45;;;43.20;44.10;;;;;;4893940;29;20238;-82
2023/07/11 13:28:34;;;;;;;23.60;22.08;;;43.90;41.50;;;;;;4907621;29;20220;-80
2023/07/11 13:31:03;;;;;;;21.98;20.40;;;44.60;41.20;;;;;;4893557;29;20591;-81
2023/07/11 13:33:38;;;;;;;21.48;20.10;;;43.70;42.40;;;;;;4892298;29;20203;-82
2023/07/11 13:36:15;;;;;;;23.75;22.17;;;43.10;43.20;;;;;;4898121;29;20219;-79
2023/07/11 13:39:06;;;;;;;19.17;18.02;;;43.00;43.80;;;;;;4914565;29;20667;-78
2023/07/11 13:41:35;;;;;;;25.70;24.15;;;42.50;44.50;;;;;;4897418;29;20218;-80
2023/07/11 13:44:32;;;;;;;22.75;21.23;;;43.10;43.80;;;;;;4914329;29;20204;-78
2023/07/11 13:47:14;;;;;;;23.10;21.50;;;43.40;43.20;;;;;;4890172;29;20208;-78
2023/07/11 13:49:43;;;;;;;20.10;18.60;;;43.00;43.40;;;;;;4907327;29;20187;-80
2023/07/11 13:52:32;;;;;;;21.67;20.30;;;43.80;43.00;;;;;;4905206;29;20202;-79
2023/07/11 13:55:09;;;;;;;24.02;22.48;;;43.00;43.40;;;;;;4884454;29;20234;-79
2023/07/11 13:57:35;;;;;;;23.83;22.15;;;42.20;43.60;;;;;;4901786;29;20692;-81
2023/07/11 14:00:00;;;;;;;46.20;43.50;;;41.30;45.00;;;;;;4893989;29;20208;-79
2023/07/11 14:02:33;;;;;;;53.05;49.65;;;40.70;46.60;;;;;;4902485;29;20196;-80
2023/07/11 14:04:59;;;;;;;88.45;83.90;;;40.70;46.00;;;;;;4881609;29;20256;-80
2023/07/11 14:07:25;;;;;;;89.90;85.05;;;40.40;46.20;;;;;;4899655;29;20684;-80
2023/07/11 14:09:50;;;;;;;95.90;91.00;;;40.20;46.70;;;;;;4902085;29;20195;-80
2023/07/11 14:12:16;;;;;;;81.90;77.55;;;40.10;47.30;;;;;;4915655;29;20200;-81
2023/07/11 14:14:42;;;;;;;91.35;86.65;;;40.70;46.30;;;;;;4892021;29;20675;-78
2023/07/11 14:17:17;;;;;;;78.72;74.68;;;40.80;45.60;;;;;;4886996;29;20231;-78
2023/07/11 14:19:44;;;;;;;59.70;56.50;;;40.90;45.10;;;;;;4901450;29;20195;-78
2023/07/11 14:22:24;;;;;;;25.88;24.23;;;41.80;44.30;;;;;;4890021;29;20188;-78
2023/07/11 14:24:51;;;;;;;33.67;31.58;;;43.20;42.60;;;;;;4903308;29;20223;-79
2023/07/11 14:27:17;;;;;;;21.90;20.08;;;44.10;42.10;;;;;;4909444;29;20208;-79
2023/07/11 14:29:43;;;;;;;16.08;14.63;;;44.70;41.40;;;;;;4908797;29;20191;-80
2023/07/11 14:32:12;;;;;;;31.73;29.52;;;44.30;41.90;;;;;;4912176;29;20187;-79
2023/07/11 14:34:39;;;;;;;26.50;24.77;;;42.50;42.60;;;;;;4897831;29;20215;-79
2023/07/11 14:37:04;;;;;;;21.05;19.70;;;41.10;44.50;;;;;;4914761;29;20276;-80
2023/07/11 14:39:30;;;;;;;37.60;35.25;;;40.60;44.80;;;;;;4912278;29;20195;-79
2023/07/11 14:41:56;;;;;;;57.70;54.35;;;40.40;45.10;;;;;;4912897;29;20183;-79
2023/07/11 14:44:30;;;;;;;80.15;75.97;;;40.40;45.20;;;;;;4909316;29;20199;-81
2023/07/11 14:46:56;;;;;;;64.50;61.17;;;40.20;45.40;;;;;;4904390;29;20211;-80
2023/07/11 14:49:23;;;;;;;53.80;50.45;;;40.90;45.00;;;;;;4902539;29;20187;-81
2023/07/11 14:51:50;;;;;;;25.77;24.08;;;41.90;44.60;;;;;;4883969;29;20204;-80
2023/07/11 14:54:26;;;;;;;25.63;23.98;;;42.70;43.50;;;;;;4900043;29;20287;-80
2023/07/11 14:56:53;;;;;;;26.08;24.17;;;43.00;42.30;;;;;;4886342;29;20222;-81
2023/07/11 14:59:29;;;;;;;27.38;25.67;;;42.20;42.30;;;;;;4907824;29;20299;-78
2023/07/11 15:02:02;;;;;;;25.70;23.70;;;42.00;40.60;;;;;;4896921;29;20203;-79
2023/07/11 15:04:31;;;;;;;16.25;15.15;;;42.90;40.80;;;;;;4909372;29;20283;-80
2023/07/11 15:06:57;;;;;;;7.80;7.20;;;44.10;40.30;;;;;;4896277;29;20242;-79
2023/07/11 15:09:23;;;;;;;8.00;6.25;;;44.90;39.40;;;;;;4911397;29;20264;-79
2023/07/11 15:11:50;;;;;;;7.07;6.47;;;44.80;39.70;;;;;;4909698;29;20195;-80
2023/07/11 15:14:19;;;;;;;9.43;7.53;;;44.30;37.80;;;;;;4890123;29;20202;-81
2023/07/11 15:16:46;;;;;;;12.63;11.65;;;43.70;39.50;;;;;;4933384;23;20253;-86
2023/07/11 15:19:21;;;;;;;20.45;19.15;;;42.70;40.20;;;;;;4902743;29;20252;-84
2023/07/11 15:21:55;;;;;;;29.25;27.23;;;42.50;41.10;;;;;;4927917;29;20212;-83
2023/07/11 15:24:21;;;;;;;28.23;26.45;;;41.00;42.90;;;;;;4896916;29;20203;-83
2023/07/11 15:26:47;;;;;;;81.07;76.43;;;39.50;44.70;;;;;;4907901;29;20699;-84
2023/07/11 15:29:16;;;;;;;89.57;84.90;;;39.20;45.70;;;;;;4915724;29;20223;-84
2023/07/11 15:31:45;;;;;;;43.67;41.25;;;40.20;44.60;;;;;;4898949;29;20613;-85
2023/07/11 15:34:19;;;;;;;25.45;23.50;;;41.20;42.70;;;;;;4924733;29;20202;-85
2023/07/11 15:36:45;;;;;;;48.42;45.72;;;41.80;42.80;;;;;;4916753;29;20215;-85
2023/07/11 15:39:12;;;;;;;72.65;68.63;;;40.70;44.30;;;;;;4916913;29;20619;-80
2023/07/11 15:41:50;;;;;;;108.30;102.63;;;40.40;44.80;;;;;;4908041;29;20222;-84
2023/07/11 15:44:27;;;;;;;125.75;119.22;;;39.90;45.80;;;;;;4906627;29;20194;-83